createdAt,value
2022-10-28T00:02:28.711Z,3.53
2022-10-28T00:07:26.862Z,3.43
2022-10-28T00:12:25.039Z,4.00
2022-10-28T00:22:28.422Z,2.60
2022-10-28T00:27:26.624Z,3.10
2022-10-28T00:32:26.454Z,3.40
2022-10-28T00:37:24.863Z,2.30
2022-10-28T00:42:23.332Z,2.43
2022-10-28T00:47:44.151Z,3.20
2022-10-28T00:52:45.479Z,2.87
2022-10-28T00:57:45.478Z,2.70
2022-10-28T01:02:46.454Z,3.53
2022-10-28T01:07:46.429Z,3.00
2022-10-28T01:12:56.997Z,2.77
2022-10-28T01:18:05.660Z,2.30
2022-10-28T01:23:11.828Z,3.33
2022-10-28T01:28:40.085Z,3.43
2022-10-28T01:33:46.404Z,3.30
2022-10-28T01:38:51.681Z,2.93
2022-10-28T01:43:57.444Z,2.80
2022-10-28T01:49:00.503Z,2.70
2022-10-28T01:54:02.127Z,2.57
2022-10-28T01:59:02.779Z,2.97
2022-10-28T02:04:03.164Z,3.27
2022-10-28T02:09:15.377Z,4.10
2022-10-28T02:14:31.670Z,2.80
2022-10-28T02:19:39.350Z,4.13
2022-10-28T02:24:46.875Z,3.10
2022-10-28T02:29:52.073Z,3.90
2022-10-28T02:34:55.533Z,4.20
2022-10-28T02:39:56.225Z,3.40
2022-10-28T02:44:59.772Z,2.80
2022-10-28T02:57:00.332Z,3.10
2022-10-28T03:01:58.572Z,3.13
2022-10-28T03:06:56.726Z,2.97
2022-10-28T03:11:56.176Z,2.50
2022-10-28T03:16:54.256Z,2.80
2022-10-28T03:21:52.379Z,2.33
2022-10-28T03:26:50.543Z,2.50
2022-10-28T03:31:50.102Z,2.43
2022-10-28T03:36:48.215Z,3.20
2022-10-28T03:41:46.329Z,2.57
2022-10-28T03:46:44.494Z,3.07
2022-10-28T03:51:43.986Z,3.40
2022-10-28T03:56:42.100Z,3.27
2022-10-28T04:01:40.282Z,2.53
2022-10-28T04:06:38.425Z,2.63
2022-10-28T04:11:38.304Z,3.70
2022-10-28T04:16:36.410Z,4.07
2022-10-28T04:21:34.963Z,3.00
2022-10-28T04:26:33.130Z,3.20
2022-10-28T04:31:32.596Z,3.47
2022-10-28T04:36:30.712Z,3.40
2022-10-28T04:41:28.957Z,3.67
2022-10-28T04:46:27.068Z,3.73
2022-10-28T04:57:57.884Z,3.50
2022-10-28T05:02:56.532Z,4.43
2022-10-28T05:07:55.284Z,2.90
2022-10-28T05:12:53.550Z,2.70
2022-10-28T05:17:53.418Z,2.33
2022-10-28T05:22:53.785Z,3.33
2022-10-28T05:27:52.866Z,3.00
2022-10-28T05:32:55.224Z,3.57
2022-10-28T05:37:53.563Z,3.20
2022-10-28T05:42:52.509Z,2.63
2022-10-28T05:47:52.567Z,2.97
2022-10-28T05:52:52.430Z,3.00
2022-10-28T05:57:52.934Z,2.50
2022-10-28T06:02:53.125Z,3.50
2022-10-28T06:07:51.572Z,3.70
2022-10-28T06:12:48.125Z,3.70
2022-10-28T06:17:48.403Z,4.13
2022-10-28T06:22:52.439Z,3.70
2022-10-28T06:27:54.641Z,3.67
2022-10-28T06:32:52.973Z,4.80
2022-10-28T06:37:55.680Z,2.80
2022-10-28T06:42:57.898Z,2.27
2022-10-28T06:47:58.017Z,2.50
2022-10-28T06:52:58.852Z,2.67
2022-10-28T06:58:01.444Z,2.63
2022-10-28T07:03:00.566Z,2.10
2022-10-28T07:09:00.439Z,4.90
2022-10-28T07:13:59.907Z,3.40
2022-10-28T07:18:58.007Z,4.40
2022-10-28T07:23:57.028Z,3.70
2022-10-28T07:28:55.254Z,3.43
2022-10-28T07:33:55.635Z,3.23
2022-10-28T07:38:54.872Z,2.87
2022-10-28T07:43:52.992Z,2.70
2022-10-28T07:48:51.123Z,2.73
2022-10-28T07:53:50.608Z,3.97
2022-10-28T07:58:48.860Z,3.37
2022-10-28T08:03:47.529Z,3.27
2022-10-28T08:15:35.738Z,3.67
2022-10-28T08:20:33.858Z,3.80
2022-10-28T08:25:31.981Z,3.40
2022-10-28T08:30:36.543Z,3.50
2022-10-28T08:35:44.678Z,3.27
2022-10-28T08:40:51.712Z,2.90
2022-10-28T08:45:57.772Z,3.00
2022-10-28T08:51:02.342Z,2.90
2022-10-28T08:56:14.295Z,3.27
2022-10-28T09:01:21.304Z,3.57
2022-10-28T09:06:21.136Z,3.03
2022-10-28T09:11:39.884Z,2.90
2022-10-28T09:16:46.036Z,3.30
2022-10-28T09:21:49.419Z,3.17
2022-10-28T09:26:58.428Z,3.43
2022-10-28T09:32:02.446Z,3.00
2022-10-28T09:37:07.620Z,3.10
2022-10-28T09:42:06.217Z,3.17
2022-10-28T09:47:13.564Z,3.10
2022-10-28T09:52:18.842Z,3.40
2022-10-28T09:57:17.526Z,3.30
2022-10-28T10:02:28.184Z,3.47
2022-10-28T10:07:39.488Z,3.57
2022-10-28T10:12:39.047Z,3.17
2022-10-28T10:17:42.574Z,3.53
2022-10-28T10:22:44.651Z,2.93
2022-10-28T10:27:42.827Z,3.40
2022-10-28T10:32:41.068Z,3.07
2022-10-28T10:37:46.514Z,3.27
2022-10-28T10:42:57.405Z,2.47
2022-10-28T10:48:14.673Z,3.20
2022-10-28T10:53:26.791Z,2.93
2022-10-28T10:58:27.587Z,2.40
2022-10-28T11:03:29.695Z,3.13
2022-10-28T11:08:40.098Z,2.80
2022-10-28T11:13:41.007Z,2.77
2022-10-28T11:18:44.304Z,3.03
2022-10-28T11:23:53.419Z,3.33
2022-10-28T11:29:08.580Z,3.20
2022-10-28T11:34:26.199Z,3.37
2022-10-28T11:39:34.680Z,3.30
2022-10-28T11:44:45.165Z,2.73
2022-10-28T11:50:44.841Z,3.70
2022-10-28T11:55:49.292Z,3.60
2022-10-28T12:01:01.961Z,3.33
2022-10-28T12:06:11.247Z,2.90
2022-10-28T12:11:22.238Z,3.07
2022-10-28T12:16:28.416Z,2.70
2022-10-28T12:21:32.338Z,2.80
2022-10-28T12:26:39.552Z,2.97
2022-10-28T12:31:44.592Z,3.20
2022-10-28T12:36:47.669Z,3.50
2022-10-28T12:41:55.397Z,3.33
2022-10-28T12:47:04.549Z,3.40
2022-10-28T12:52:10.594Z,3.50
2022-10-28T12:57:15.128Z,3.20
2022-10-28T13:09:36.359Z,2.63
2022-10-28T13:14:55.642Z,3.60
2022-10-28T13:20:09.285Z,3.23
2022-10-28T13:25:22.085Z,3.07
2022-10-28T13:30:22.835Z,3.63
2022-10-28T13:35:25.299Z,2.90
2022-10-28T13:40:41.699Z,3.40
2022-10-28T13:45:53.721Z,2.70
2022-10-28T13:50:51.872Z,3.60
2022-10-28T13:55:49.997Z,3.40
2022-10-28T14:00:52.081Z,3.90
2022-10-28T14:05:56.000Z,3.17
2022-10-28T14:11:04.874Z,2.97
2022-10-28T14:16:19.156Z,2.83
2022-10-28T14:21:18.746Z,2.50
2022-10-28T14:26:16.872Z,4.50
2022-10-28T14:38:40.011Z,3.93
2022-10-28T14:43:58.965Z,3.57
2022-10-28T14:48:57.916Z,4.50
2022-10-28T14:53:59.726Z,3.33
2022-10-28T14:59:00.786Z,3.83
2022-10-28T15:04:02.362Z,3.63
2022-10-28T15:09:08.216Z,4.90
2022-10-28T15:14:24.879Z,3.87
2022-10-28T15:19:25.490Z,2.83
2022-10-28T15:24:24.940Z,4.20
2022-10-28T15:29:23.267Z,3.90
2022-10-28T15:34:22.230Z,4.47
2022-10-28T15:39:20.424Z,3.23
2022-10-28T15:44:41.009Z,4.40
2022-10-28T15:49:41.502Z,3.97
2022-10-28T15:54:41.083Z,4.40
2022-10-28T15:59:40.676Z,3.37
2022-10-28T16:04:45.593Z,4.67
2022-10-28T16:09:47.254Z,4.43
2022-10-28T16:14:50.633Z,4.20
2022-10-28T16:19:53.161Z,5.00
2022-10-28T16:24:53.150Z,3.60
2022-10-28T16:29:52.913Z,4.00
2022-10-28T16:34:51.036Z,4.57
2022-10-28T16:39:49.183Z,3.23
2022-10-28T16:44:47.528Z,3.60
2022-10-28T16:49:52.561Z,3.77
2022-10-28T16:54:54.479Z,3.47
2022-10-28T16:59:52.881Z,3.30
2022-10-28T17:04:52.330Z,3.67
2022-10-28T17:09:51.965Z,4.60
2022-10-28T17:14:50.336Z,4.03
2022-10-28T17:19:48.460Z,5.10
2022-10-28T17:24:47.949Z,4.20
2022-10-28T17:29:46.393Z,4.93
2022-10-28T17:34:44.591Z,4.93
2022-10-28T17:39:43.062Z,5.10
2022-10-28T17:44:42.554Z,5.13
2022-10-28T17:49:41.096Z,4.70
2022-10-28T17:54:39.318Z,4.10
2022-10-28T17:59:37.439Z,4.23
2022-10-28T18:04:36.895Z,4.67
2022-10-28T18:09:35.091Z,4.20
2022-10-28T18:14:33.419Z,4.30
2022-10-28T18:19:31.535Z,4.50
2022-10-28T18:24:31.027Z,4.50
2022-10-28T18:29:29.176Z,4.60
2022-10-28T18:34:27.369Z,4.20
2022-10-28T18:39:25.709Z,4.57
2022-10-28T18:44:31.662Z,4.67
2022-10-28T18:49:29.828Z,3.97
2022-10-28T18:55:29.280Z,3.63
2022-10-28T19:00:28.837Z,3.73
2022-10-28T19:05:27.006Z,4.30
2022-10-28T19:10:25.147Z,4.20
2022-10-28T19:15:23.233Z,4.97
2022-10-28T19:20:23.858Z,4.70
2022-10-28T19:25:21.975Z,4.80
2022-10-28T19:30:20.151Z,4.60
2022-10-28T19:35:18.307Z,4.90
2022-10-28T19:40:17.975Z,4.70
2022-10-28T19:45:16.190Z,4.00
2022-10-28T19:50:14.468Z,4.80
2022-10-28T19:55:15.023Z,4.50
2022-10-28T20:00:15.544Z,5.60
2022-10-28T20:05:13.673Z,5.30
2022-10-28T20:10:11.771Z,4.97
2022-10-28T20:15:10.314Z,4.27
2022-10-28T20:20:13.911Z,4.33
2022-10-28T20:25:12.084Z,4.50
2022-10-28T20:30:11.619Z,4.40
2022-10-28T20:35:11.600Z,4.60
2022-10-28T20:40:10.398Z,5.17
2022-10-28T20:45:09.312Z,4.80
2022-10-28T20:50:08.407Z,4.40
2022-10-28T20:55:08.574Z,5.20
2022-10-28T21:00:08.061Z,4.67
2022-10-28T21:05:07.246Z,5.30
2022-10-28T21:10:07.605Z,5.13
2022-10-28T21:15:06.706Z,4.10
2022-10-28T21:20:05.568Z,4.93
2022-10-28T21:25:05.143Z,5.10
2022-10-28T21:30:05.018Z,5.37
2022-10-28T21:35:03.179Z,4.17
2022-10-28T21:40:01.377Z,5.03
2022-10-28T21:44:59.526Z,5.20
2022-10-28T21:49:58.988Z,5.90
2022-10-28T21:54:57.081Z,5.27
2022-10-28T21:59:55.169Z,4.97
2022-10-28T22:04:53.287Z,4.90
2022-10-28T22:09:52.719Z,5.73
2022-10-28T22:14:51.048Z,5.40
2022-10-28T22:19:50.210Z,6.10
2022-10-28T22:24:48.294Z,4.60
2022-10-28T22:29:47.788Z,4.90
2022-10-28T22:34:46.310Z,6.37
2022-10-28T22:46:36.711Z,5.83
2022-10-28T22:51:34.950Z,4.50
2022-10-28T22:56:33.146Z,5.27
2022-10-28T23:01:31.509Z,4.90
2022-10-28T23:06:31.251Z,6.10
2022-10-28T23:11:29.422Z,5.97
2022-10-28T23:16:27.622Z,5.00
2022-10-28T23:21:27.062Z,4.70
2022-10-28T23:26:28.134Z,4.47
2022-10-28T23:31:26.886Z,5.63
2022-10-28T23:36:25.354Z,5.00
2022-10-28T23:41:23.471Z,4.57
2022-10-28T23:46:22.943Z,4.37
2022-10-28T23:51:21.091Z,5.40
2022-10-28T23:56:19.229Z,4.90
